sensor_id;sensor_type;location;lat;lon;timestamp;temperature;humidity
42227;DHT22;27892;52.378;13.122;2022-12-24T00:00:26;10.10;85.50
42227;DHT22;27892;52.378;13.122;2022-12-24T00:02:52;10.10;86.30
42227;DHT22;27892;52.378;13.122;2022-12-24T00:05:17;10.10;86.60
42227;DHT22;27892;52.378;13.122;2022-12-24T00:07:43;10.10;86.30
42227;DHT22;27892;52.378;13.122;2022-12-24T00:10:09;10.10;86.50
42227;DHT22;27892;52.378;13.122;2022-12-24T00:12:35;10.10;86.70
42227;DHT22;27892;52.378;13.122;2022-12-24T00:15:02;10.10;86.70
42227;DHT22;27892;52.378;13.122;2022-12-24T00:17:28;10.10;86.00
42227;DHT22;27892;52.378;13.122;2022-12-24T00:19:54;10.10;86.70
42227;DHT22;27892;52.378;13.122;2022-12-24T00:22:20;10.10;86.20
42227;DHT22;27892;52.378;13.122;2022-12-24T00:24:45;10.10;86.10
42227;DHT22;27892;52.378;13.122;2022-12-24T00:27:11;10.00;85.60
42227;DHT22;27892;52.378;13.122;2022-12-24T00:29:36;10.00;86.30
42227;DHT22;27892;52.378;13.122;2022-12-24T00:32:02;10.00;86.40
42227;DHT22;27892;52.378;13.122;2022-12-24T00:34:32;10.00;86.50
42227;DHT22;27892;52.378;13.122;2022-12-24T00:36:58;10.00;86.40
42227;DHT22;27892;52.378;13.122;2022-12-24T00:39:24;10.00;86.70
42227;DHT22;27892;52.378;13.122;2022-12-24T00:41:49;10.00;86.50
42227;DHT22;27892;52.378;13.122;2022-12-24T00:44:15;10.00;86.20
42227;DHT22;27892;52.378;13.122;2022-12-24T00:46:41;10.00;86.50
42227;DHT22;27892;52.378;13.122;2022-12-24T00:49:08;10.00;86.00
42227;DHT22;27892;52.378;13.122;2022-12-24T00:51:34;10.00;85.70
42227;DHT22;27892;52.378;13.122;2022-12-24T00:54:00;9.80;87.10
42227;DHT22;27892;52.378;13.122;2022-12-24T00:56:26;9.80;87.20
42227;DHT22;27892;52.378;13.122;2022-12-24T00:58:52;9.80;86.90
42227;DHT22;27892;52.378;13.122;2022-12-24T01:01:19;9.80;87.60
42227;DHT22;27892;52.378;13.122;2022-12-24T01:03:45;9.70;86.90
42227;DHT22;27892;52.378;13.122;2022-12-24T01:06:13;9.80;87.80
42227;DHT22;27892;52.378;13.122;2022-12-24T01:08:39;9.80;87.80
42227;DHT22;27892;52.378;13.122;2022-12-24T01:11:07;9.80;87.40
42227;DHT22;27892;52.378;13.122;2022-12-24T01:13:33;9.80;87.60
42227;DHT22;27892;52.378;13.122;2022-12-24T01:15:59;9.80;87.60
42227;DHT22;27892;52.378;13.122;2022-12-24T01:18:25;9.80;88.10
42227;DHT22;27892;52.378;13.122;2022-12-24T01:21:00;9.80;87.70
42227;DHT22;27892;52.378;13.122;2022-12-24T01:23:26;9.80;87.50
42227;DHT22;27892;52.378;13.122;2022-12-24T01:25:52;9.70;87.40
42227;DHT22;27892;52.378;13.122;2022-12-24T01:28:18;9.80;87.70
42227;DHT22;27892;52.378;13.122;2022-12-24T01:30:44;9.80;87.30
42227;DHT22;27892;52.378;13.122;2022-12-24T01:33:09;9.80;87.50
42227;DHT22;27892;52.378;13.122;2022-12-24T01:35:39;9.80;87.50
42227;DHT22;27892;52.378;13.122;2022-12-24T01:38:04;9.80;87.60
42227;DHT22;27892;52.378;13.122;2022-12-24T01:40:30;9.80;87.20
42227;DHT22;27892;52.378;13.122;2022-12-24T01:43:17;9.70;87.00
42227;DHT22;27892;52.378;13.122;2022-12-24T01:53:52;9.80;87.20
42227;DHT22;27892;52.378;13.122;2022-12-24T01:56:20;9.80;86.80
42227;DHT22;27892;52.378;13.122;2022-12-24T01:58:50;9.80;87.20
42227;DHT22;27892;52.378;13.122;2022-12-24T02:01:17;9.80;87.10
42227;DHT22;27892;52.378;13.122;2022-12-24T02:03:43;9.80;87.40
42227;DHT22;27892;52.378;13.122;2022-12-24T02:06:09;9.80;87.10
42227;DHT22;27892;52.378;13.122;2022-12-24T02:08:40;9.90;87.50
42227;DHT22;27892;52.378;13.122;2022-12-24T02:11:26;9.90;87.10
42227;DHT22;27892;52.378;13.122;2022-12-24T02:13:55;9.90;87.90
42227;DHT22;27892;52.378;13.122;2022-12-24T02:16:37;9.90;86.80
42227;DHT22;27892;52.378;13.122;2022-12-24T02:22:03;9.90;87.20
42227;DHT22;27892;52.378;13.122;2022-12-24T02:37:59;10.00;85.70
42227;DHT22;27892;52.378;13.122;2022-12-24T02:40:35;10.00;86.00
42227;DHT22;27892;52.378;13.122;2022-12-24T02:43:08;10.10;86.20
42227;DHT22;27892;52.378;13.122;2022-12-24T02:45:35;10.10;85.80
42227;DHT22;27892;52.378;13.122;2022-12-24T02:48:04;10.20;85.90
42227;DHT22;27892;52.378;13.122;2022-12-24T02:50:30;10.20;85.80
42227;DHT22;27892;52.378;13.122;2022-12-24T02:52:56;10.20;85.50
42227;DHT22;27892;52.378;13.122;2022-12-24T03:09:24;10.10;85.30
42227;DHT22;27892;52.378;13.122;2022-12-24T03:11:58;10.10;85.00
42227;DHT22;27892;52.378;13.122;2022-12-24T03:14:26;10.10;85.50
42227;DHT22;27892;52.378;13.122;2022-12-24T03:17:11;10.10;85.70
42227;DHT22;27892;52.378;13.122;2022-12-24T03:19:56;10.10;85.20
42227;DHT22;27892;52.378;13.122;2022-12-24T03:22:40;10.10;85.60
42227;DHT22;27892;52.378;13.122;2022-12-24T03:25:06;10.10;85.70
42227;DHT22;27892;52.378;13.122;2022-12-24T03:27:33;10.10;85.70
42227;DHT22;27892;52.378;13.122;2022-12-24T03:30:02;10.20;85.90
42227;DHT22;27892;52.378;13.122;2022-12-24T03:32:29;10.30;85.60
42227;DHT22;27892;52.378;13.122;2022-12-24T03:34:56;10.30;85.20
42227;DHT22;27892;52.378;13.122;2022-12-24T03:37:22;10.30;85.00
42227;DHT22;27892;52.378;13.122;2022-12-24T03:39:48;10.30;84.80
42227;DHT22;27892;52.378;13.122;2022-12-24T03:42:13;10.30;84.20
42227;DHT22;27892;52.378;13.122;2022-12-24T03:44:39;10.20;84.30
42227;DHT22;27892;52.378;13.122;2022-12-24T03:47:05;10.20;84.60
42227;DHT22;27892;52.378;13.122;2022-12-24T03:49:30;10.20;85.20
42227;DHT22;27892;52.378;13.122;2022-12-24T03:51:56;10.20;85.30
42227;DHT22;27892;52.378;13.122;2022-12-24T03:54:22;10.20;85.10
42227;DHT22;27892;52.378;13.122;2022-12-24T03:56:48;10.30;85.10
42227;DHT22;27892;52.378;13.122;2022-12-24T03:59:13;10.30;84.30
42227;DHT22;27892;52.378;13.122;2022-12-24T04:01:39;10.20;84.00
42227;DHT22;27892;52.378;13.122;2022-12-24T04:04:05;10.20;84.70
42227;DHT22;27892;52.378;13.122;2022-12-24T04:06:30;10.30;84.90
42227;DHT22;27892;52.378;13.122;2022-12-24T04:08:56;10.30;84.50
42227;DHT22;27892;52.378;13.122;2022-12-24T04:11:23;10.30;83.70
42227;DHT22;27892;52.378;13.122;2022-12-24T04:13:49;10.20;83.60
42227;DHT22;27892;52.378;13.122;2022-12-24T04:16:15;10.10;83.90
42227;DHT22;27892;52.378;13.122;2022-12-24T04:18:41;10.10;84.80
42227;DHT22;27892;52.378;13.122;2022-12-24T04:21:07;10.20;85.10
42227;DHT22;27892;52.378;13.122;2022-12-24T04:23:35;10.20;84.80
42227;DHT22;27892;52.378;13.122;2022-12-24T04:26:02;10.10;83.80
42227;DHT22;27892;52.378;13.122;2022-12-24T04:28:29;10.10;84.30
42227;DHT22;27892;52.378;13.122;2022-12-24T04:31:03;10.10;84.80
42227;DHT22;27892;52.378;13.122;2022-12-24T04:33:30;10.10;84.50
42227;DHT22;27892;52.378;13.122;2022-12-24T04:35:57;10.10;84.50
42227;DHT22;27892;52.378;13.122;2022-12-24T04:38:23;10.20;84.70
42227;DHT22;27892;52.378;13.122;2022-12-24T04:40:57;10.20;84.00
42227;DHT22;27892;52.378;13.122;2022-12-24T04:43:22;10.20;84.30
42227;DHT22;27892;52.378;13.122;2022-12-24T04:45:48;10.20;84.10
42227;DHT22;27892;52.378;13.122;2022-12-24T04:48:14;10.20;83.60
42227;DHT22;27892;52.378;13.122;2022-12-24T04:50:39;10.20;83.00
42227;DHT22;27892;52.378;13.122;2022-12-24T04:53:05;10.10;83.10
42227;DHT22;27892;52.378;13.122;2022-12-24T04:55:30;10.00;83.60
42227;DHT22;27892;52.378;13.122;2022-12-24T04:57:56;9.90;84.90
42227;DHT22;27892;52.378;13.122;2022-12-24T05:00:22;9.90;85.30
42227;DHT22;27892;52.378;13.122;2022-12-24T05:02:47;9.90;85.30
42227;DHT22;27892;52.378;13.122;2022-12-24T05:05:13;9.90;85.20
42227;DHT22;27892;52.378;13.122;2022-12-24T05:07:39;9.90;85.00
42227;DHT22;27892;52.378;13.122;2022-12-24T05:10:05;9.90;85.10
42227;DHT22;27892;52.378;13.122;2022-12-24T05:12:31;9.90;85.30
42227;DHT22;27892;52.378;13.122;2022-12-24T05:14:58;9.80;84.80
42227;DHT22;27892;52.378;13.122;2022-12-24T05:17:24;9.80;84.80
42227;DHT22;27892;52.378;13.122;2022-12-24T05:19:49;9.80;85.20
42227;DHT22;27892;52.378;13.122;2022-12-24T05:22:15;9.80;85.80
42227;DHT22;27892;52.378;13.122;2022-12-24T05:24:59;9.80;85.80
42227;DHT22;27892;52.378;13.122;2022-12-24T05:27:57;9.90;84.80
42227;DHT22;27892;52.378;13.122;2022-12-24T05:30:23;9.70;84.40
42227;DHT22;27892;52.378;13.122;2022-12-24T05:32:48;9.60;84.60
42227;DHT22;27892;52.378;13.122;2022-12-24T05:35:14;9.60;85.30
42227;DHT22;27892;52.378;13.122;2022-12-24T05:37:40;9.70;85.70
42227;DHT22;27892;52.378;13.122;2022-12-24T05:40:06;9.80;85.30
42227;DHT22;27892;52.378;13.122;2022-12-24T05:42:31;9.90;85.10
42227;DHT22;27892;52.378;13.122;2022-12-24T05:44:57;9.90;84.80
42227;DHT22;27892;52.378;13.122;2022-12-24T05:47:23;9.80;84.00
42227;DHT22;27892;52.378;13.122;2022-12-24T05:49:48;9.80;84.50
42227;DHT22;27892;52.378;13.122;2022-12-24T05:52:14;9.90;84.80
42227;DHT22;27892;52.378;13.122;2022-12-24T05:54:40;9.90;84.60
42227;DHT22;27892;52.378;13.122;2022-12-24T05:57:05;10.00;83.20
42227;DHT22;27892;52.378;13.122;2022-12-24T05:59:31;10.10;82.90
42227;DHT22;27892;52.378;13.122;2022-12-24T06:01:56;10.10;82.60
42227;DHT22;27892;52.378;13.122;2022-12-24T06:04:22;10.20;82.70
42227;DHT22;27892;52.378;13.122;2022-12-24T06:06:48;10.20;82.80
42227;DHT22;27892;52.378;13.122;2022-12-24T06:09:13;10.20;82.50
42227;DHT22;27892;52.378;13.122;2022-12-24T06:11:39;10.10;81.50
42227;DHT22;27892;52.378;13.122;2022-12-24T06:14:05;9.90;82.70
42227;DHT22;27892;52.378;13.122;2022-12-24T06:16:31;9.90;83.90
42227;DHT22;27892;52.378;13.122;2022-12-24T06:18:56;10.00;82.90
42227;DHT22;27892;52.378;13.122;2022-12-24T06:21:22;9.90;83.00
42227;DHT22;27892;52.378;13.122;2022-12-24T06:23:48;9.90;83.80
42227;DHT22;27892;52.378;13.122;2022-12-24T06:26:16;9.90;83.70
42227;DHT22;27892;52.378;13.122;2022-12-24T06:28:43;9.80;83.30
42227;DHT22;27892;52.378;13.122;2022-12-24T06:31:11;9.70;83.70
42227;DHT22;27892;52.378;13.122;2022-12-24T06:33:37;9.80;84.30
42227;DHT22;27892;52.378;13.122;2022-12-24T06:36:10;9.90;84.60
42227;DHT22;27892;52.378;13.122;2022-12-24T06:38:37;9.90;84.70
42227;DHT22;27892;52.378;13.122;2022-12-24T06:41:07;10.00;83.40
42227;DHT22;27892;52.378;13.122;2022-12-24T06:43:33;10.00;82.90
42227;DHT22;27892;52.378;13.122;2022-12-24T06:45:59;10.00;83.10
42227;DHT22;27892;52.378;13.122;2022-12-24T06:48:25;10.00;83.00
42227;DHT22;27892;52.378;13.122;2022-12-24T06:50:51;10.00;83.20
42227;DHT22;27892;52.378;13.122;2022-12-24T06:53:17;10.10;82.70
42227;DHT22;27892;52.378;13.122;2022-12-24T06:55:43;10.00;82.50
42227;DHT22;27892;52.378;13.122;2022-12-24T06:58:08;10.00;82.60
42227;DHT22;27892;52.378;13.122;2022-12-24T07:00:35;9.90;83.60
42227;DHT22;27892;52.378;13.122;2022-12-24T07:03:00;10.00;83.50
42227;DHT22;27892;52.378;13.122;2022-12-24T07:05:26;10.00;83.10
42227;DHT22;27892;52.378;13.122;2022-12-24T07:07:52;10.00;82.30
42227;DHT22;27892;52.378;13.122;2022-12-24T07:10:19;9.80;83.20
42227;DHT22;27892;52.378;13.122;2022-12-24T07:12:45;9.70;84.00
42227;DHT22;27892;52.378;13.122;2022-12-24T07:15:11;9.80;84.90
42227;DHT22;27892;52.378;13.122;2022-12-24T07:17:37;9.90;84.60
42227;DHT22;27892;52.378;13.122;2022-12-24T07:20:04;9.90;84.30
42227;DHT22;27892;52.378;13.122;2022-12-24T07:22:30;9.90;84.10
42227;DHT22;27892;52.378;13.122;2022-12-24T07:24:55;9.90;84.50
42227;DHT22;27892;52.378;13.122;2022-12-24T07:27:21;10.10;83.20
42227;DHT22;27892;52.378;13.122;2022-12-24T07:29:47;10.10;83.00
42227;DHT22;27892;52.378;13.122;2022-12-24T07:32:13;10.20;82.50
42227;DHT22;27892;52.378;13.122;2022-12-24T07:34:39;10.20;82.80
42227;DHT22;27892;52.378;13.122;2022-12-24T07:37:12;10.30;83.00
42227;DHT22;27892;52.378;13.122;2022-12-24T07:39:37;10.30;82.40
42227;DHT22;27892;52.378;13.122;2022-12-24T07:42:03;10.40;82.80
42227;DHT22;27892;52.378;13.122;2022-12-24T07:44:32;10.40;82.30
42227;DHT22;27892;52.378;13.122;2022-12-24T07:46:58;10.40;81.90
42227;DHT22;27892;52.378;13.122;2022-12-24T07:49:23;10.40;82.10
42227;DHT22;27892;52.378;13.122;2022-12-24T07:51:49;10.40;82.00
42227;DHT22;27892;52.378;13.122;2022-12-24T07:54:15;10.40;81.70
42227;DHT22;27892;52.378;13.122;2022-12-24T07:56:41;10.40;81.80
42227;DHT22;27892;52.378;13.122;2022-12-24T07:59:07;10.40;81.20
42227;DHT22;27892;52.378;13.122;2022-12-24T08:01:33;10.30;80.80
42227;DHT22;27892;52.378;13.122;2022-12-24T08:03:58;10.30;81.70
42227;DHT22;27892;52.378;13.122;2022-12-24T08:06:24;10.30;81.90
42227;DHT22;27892;52.378;13.122;2022-12-24T08:08:50;10.30;81.40
42227;DHT22;27892;52.378;13.122;2022-12-24T08:11:18;10.40;82.10
42227;DHT22;27892;52.378;13.122;2022-12-24T08:13:44;10.40;81.70
42227;DHT22;27892;52.378;13.122;2022-12-24T08:16:09;10.40;81.40
42227;DHT22;27892;52.378;13.122;2022-12-24T08:18:35;10.40;81.50
42227;DHT22;27892;52.378;13.122;2022-12-24T08:21:01;10.40;81.60
42227;DHT22;27892;52.378;13.122;2022-12-24T08:23:26;10.50;82.00
42227;DHT22;27892;52.378;13.122;2022-12-24T08:25:52;10.50;81.80
42227;DHT22;27892;52.378;13.122;2022-12-24T08:28:19;10.50;81.40
42227;DHT22;27892;52.378;13.122;2022-12-24T08:30:47;10.50;81.70
42227;DHT22;27892;52.378;13.122;2022-12-24T08:33:13;10.60;82.00
42227;DHT22;27892;52.378;13.122;2022-12-24T08:35:38;10.60;81.70
42227;DHT22;27892;52.378;13.122;2022-12-24T08:38:04;10.70;81.30
42227;DHT22;27892;52.378;13.122;2022-12-24T08:40:33;10.70;81.30
42227;DHT22;27892;52.378;13.122;2022-12-24T08:43:00;10.80;81.00
42227;DHT22;27892;52.378;13.122;2022-12-24T08:45:26;10.80;81.20
42227;DHT22;27892;52.378;13.122;2022-12-24T08:47:52;10.80;81.10
42227;DHT22;27892;52.378;13.122;2022-12-24T08:50:18;10.80;81.10
42227;DHT22;27892;52.378;13.122;2022-12-24T08:52:43;10.80;81.10
42227;DHT22;27892;52.378;13.122;2022-12-24T08:55:09;10.90;81.50
42227;DHT22;27892;52.378;13.122;2022-12-24T08:57:36;10.90;81.50
42227;DHT22;27892;52.378;13.122;2022-12-24T09:00:04;11.00;81.40
42227;DHT22;27892;52.378;13.122;2022-12-24T09:02:31;11.10;81.10
42227;DHT22;27892;52.378;13.122;2022-12-24T09:04:56;11.10;80.90
42227;DHT22;27892;52.378;13.122;2022-12-24T09:07:22;11.10;80.60
42227;DHT22;27892;52.378;13.122;2022-12-24T09:09:48;11.20;81.10
42227;DHT22;27892;52.378;13.122;2022-12-24T09:12:13;11.20;81.30
42227;DHT22;27892;52.378;13.122;2022-12-24T09:14:39;11.20;80.90
42227;DHT22;27892;52.378;13.122;2022-12-24T09:17:04;11.30;81.20
42227;DHT22;27892;52.378;13.122;2022-12-24T09:19:30;11.20;81.60
42227;DHT22;27892;52.378;13.122;2022-12-24T09:21:56;11.30;81.30
42227;DHT22;27892;52.378;13.122;2022-12-24T09:24:21;11.40;81.60
42227;DHT22;27892;52.378;13.122;2022-12-24T09:26:47;11.30;81.80
42227;DHT22;27892;52.378;13.122;2022-12-24T09:29:15;11.40;82.10
42227;DHT22;27892;52.378;13.122;2022-12-24T09:31:41;11.40;81.90
42227;DHT22;27892;52.378;13.122;2022-12-24T09:34:07;11.40;82.60
42227;DHT22;27892;52.378;13.122;2022-12-24T09:36:33;11.50;82.60
42227;DHT22;27892;52.378;13.122;2022-12-24T09:38:58;11.50;82.50
42227;DHT22;27892;52.378;13.122;2022-12-24T09:44:19;11.50;83.30
42227;DHT22;27892;52.378;13.122;2022-12-24T09:46:46;11.60;83.50
42227;DHT22;27892;52.378;13.122;2022-12-24T09:49:19;11.60;83.30
42227;DHT22;27892;52.378;13.122;2022-12-24T09:51:56;11.70;83.20
42227;DHT22;27892;52.378;13.122;2022-12-24T09:54:45;11.70;82.80
42227;DHT22;27892;52.378;13.122;2022-12-24T09:57:18;11.70;82.70
42227;DHT22;27892;52.378;13.122;2022-12-24T09:59:46;11.70;82.30
42227;DHT22;27892;52.378;13.122;2022-12-24T10:02:16;11.70;82.80
42227;DHT22;27892;52.378;13.122;2022-12-24T10:04:44;11.80;83.20
42227;DHT22;27892;52.378;13.122;2022-12-24T10:07:43;11.80;83.20
42227;DHT22;27892;52.378;13.122;2022-12-24T10:13:20;11.70;83.10
42227;DHT22;27892;52.378;13.122;2022-12-24T10:16:02;11.70;83.30
42227;DHT22;27892;52.378;13.122;2022-12-24T10:27:10;11.70;83.70
42227;DHT22;27892;52.378;13.122;2022-12-24T10:29:40;11.70;84.20
42227;DHT22;27892;52.378;13.122;2022-12-24T10:34:39;11.80;84.00
42227;DHT22;27892;52.378;13.122;2022-12-24T10:37:06;11.90;85.00
42227;DHT22;27892;52.378;13.122;2022-12-24T10:39:35;11.90;84.00
42227;DHT22;27892;52.378;13.122;2022-12-24T10:42:01;12.00;84.10
42227;DHT22;27892;52.378;13.122;2022-12-24T10:44:31;11.90;83.60
42227;DHT22;27892;52.378;13.122;2022-12-24T10:46:57;11.90;83.50
42227;DHT22;27892;52.378;13.122;2022-12-24T10:49:35;11.90;83.70
42227;DHT22;27892;52.378;13.122;2022-12-24T10:52:43;12.10;84.10
42227;DHT22;27892;52.378;13.122;2022-12-24T10:57:40;12.20;83.90
42227;DHT22;27892;52.378;13.122;2022-12-24T11:00:17;12.30;84.40
42227;DHT22;27892;52.378;13.122;2022-12-24T11:02:46;12.30;83.30
42227;DHT22;27892;52.378;13.122;2022-12-24T11:05:32;12.40;83.60
42227;DHT22;27892;52.378;13.122;2022-12-24T11:08:16;12.40;83.70
42227;DHT22;27892;52.378;13.122;2022-12-24T11:10:54;12.60;84.50
42227;DHT22;27892;52.378;13.122;2022-12-24T11:13:38;12.90;84.60
42227;DHT22;27892;52.378;13.122;2022-12-24T11:16:09;13.30;84.80
42227;DHT22;27892;52.378;13.122;2022-12-24T11:18:44;13.50;85.30
42227;DHT22;27892;52.378;13.122;2022-12-24T11:21:12;13.80;83.80
42227;DHT22;27892;52.378;13.122;2022-12-24T11:23:49;13.90;82.30
42227;DHT22;27892;52.378;13.122;2022-12-24T11:26:21;14.00;82.60
42227;DHT22;27892;52.378;13.122;2022-12-24T11:29:12;14.10;81.80
42227;DHT22;27892;52.378;13.122;2022-12-24T11:31:39;14.10;80.70
42227;DHT22;27892;52.378;13.122;2022-12-24T11:34:27;14.00;79.60
42227;DHT22;27892;52.378;13.122;2022-12-24T11:37:06;14.00;79.80
42227;DHT22;27892;52.378;13.122;2022-12-24T11:39:44;13.90;79.90
42227;DHT22;27892;52.378;13.122;2022-12-24T11:42:33;13.90;79.80
42227;DHT22;27892;52.378;13.122;2022-12-24T11:45:02;13.90;80.30
42227;DHT22;27892;52.378;13.122;2022-12-24T11:47:38;13.90;80.00
42227;DHT22;27892;52.378;13.122;2022-12-24T11:55:37;13.80;79.40
42227;DHT22;27892;52.378;13.122;2022-12-24T12:01:17;13.60;78.80
42227;DHT22;27892;52.378;13.122;2022-12-24T12:06:42;13.40;79.30
42227;DHT22;27892;52.378;13.122;2022-12-24T12:09:27;13.30;80.20
42227;DHT22;27892;52.378;13.122;2022-12-24T12:12:06;13.30;79.90
42227;DHT22;27892;52.378;13.122;2022-12-24T12:14:56;13.20;80.20
42227;DHT22;27892;52.378;13.122;2022-12-24T12:17:28;13.10;80.80
42227;DHT22;27892;52.378;13.122;2022-12-24T12:20:20;13.10;80.00
42227;DHT22;27892;52.378;13.122;2022-12-24T12:23:03;12.90;79.80
42227;DHT22;27892;52.378;13.122;2022-12-24T12:25:40;13.00;81.60
42227;DHT22;27892;52.378;13.122;2022-12-24T12:28:21;13.10;81.60
42227;DHT22;27892;52.378;13.122;2022-12-24T12:31:41;13.20;80.80
42227;DHT22;27892;52.378;13.122;2022-12-24T12:33:45;13.30;81.20
42227;DHT22;27892;52.378;13.122;2022-12-24T12:36:16;13.60;82.20
42227;DHT22;27892;52.378;13.122;2022-12-24T12:38:43;13.90;80.60
42227;DHT22;27892;52.378;13.122;2022-12-24T12:41:22;13.90;79.60
42227;DHT22;27892;52.378;13.122;2022-12-24T12:51:51;13.60;79.70
42227;DHT22;27892;52.378;13.122;2022-12-24T12:54:46;13.50;79.50
42227;DHT22;27892;52.378;13.122;2022-12-24T12:57:17;13.50;79.60
42227;DHT22;27892;52.378;13.122;2022-12-24T13:00:06;13.60;79.90
42227;DHT22;27892;52.378;13.122;2022-12-24T13:10:45;13.60;79.90
42227;DHT22;27892;52.378;13.122;2022-12-24T13:18:47;13.60;79.60
42227;DHT22;27892;52.378;13.122;2022-12-24T13:21:26;13.70;79.70
42227;DHT22;27892;52.378;13.122;2022-12-24T13:26:31;13.70;79.60
42227;DHT22;27892;52.378;13.122;2022-12-24T13:34:53;13.80;79.40
42227;DHT22;27892;52.378;13.122;2022-12-24T13:37:41;13.70;78.30
42227;DHT22;27892;52.378;13.122;2022-12-24T13:42:48;13.30;78.40
42227;DHT22;27892;52.378;13.122;2022-12-24T13:53:41;12.80;79.30
42227;DHT22;27892;52.378;13.122;2022-12-24T13:58:49;12.50;79.50
42227;DHT22;27892;52.378;13.122;2022-12-24T14:01:19;12.40;79.90
42227;DHT22;27892;52.378;13.122;2022-12-24T14:03:51;12.40;80.20
42227;DHT22;27892;52.378;13.122;2022-12-24T14:06:39;12.30;80.10
42227;DHT22;27892;52.378;13.122;2022-12-24T14:09:16;12.30;79.80
42227;DHT22;27892;52.378;13.122;2022-12-24T14:14:28;12.10;80.30
42227;DHT22;27892;52.378;13.122;2022-12-24T14:17:23;12.00;80.10
42227;DHT22;27892;52.378;13.122;2022-12-24T14:19:57;11.90;80.30
42227;DHT22;27892;52.378;13.122;2022-12-24T14:25:10;11.70;80.50
42227;DHT22;27892;52.378;13.122;2022-12-24T14:27:45;11.70;80.40
42227;DHT22;27892;52.378;13.122;2022-12-24T14:30:16;11.60;80.10
42227;DHT22;27892;52.378;13.122;2022-12-24T14:32:43;11.40;79.80
42227;DHT22;27892;52.378;13.122;2022-12-24T14:37:43;11.30;80.00
42227;DHT22;27892;52.378;13.122;2022-12-24T14:40:19;11.20;80.80
42227;DHT22;27892;52.378;13.122;2022-12-24T14:45:38;11.00;80.40
42227;DHT22;27892;52.378;13.122;2022-12-24T14:57:09;10.70;80.40
42227;DHT22;27892;52.378;13.122;2022-12-24T14:59:56;10.70;80.40
42227;DHT22;27892;52.378;13.122;2022-12-24T15:02:45;10.50;80.00
42227;DHT22;27892;52.378;13.122;2022-12-24T15:05:15;10.50;80.70
42227;DHT22;27892;52.378;13.122;2022-12-24T15:07:57;10.40;80.50
42227;DHT22;27892;52.378;13.122;2022-12-24T15:10:27;10.30;80.20
42227;DHT22;27892;52.378;13.122;2022-12-24T15:12:54;10.30;80.10
42227;DHT22;27892;52.378;13.122;2022-12-24T15:15:21;10.20;80.40
42227;DHT22;27892;52.378;13.122;2022-12-24T15:17:47;10.10;80.50
42227;DHT22;27892;52.378;13.122;2022-12-24T15:20:17;10.10;81.10
42227;DHT22;27892;52.378;13.122;2022-12-24T15:22:44;10.20;81.20
42227;DHT22;27892;52.378;13.122;2022-12-24T15:25:21;10.30;81.20
42227;DHT22;27892;52.378;13.122;2022-12-24T15:27:47;10.40;81.20
42227;DHT22;27892;52.378;13.122;2022-12-24T15:30:17;10.50;81.10
42227;DHT22;27892;52.378;13.122;2022-12-24T15:32:46;10.50;80.50
42227;DHT22;27892;52.378;13.122;2022-12-24T15:35:53;10.50;80.10
42227;DHT22;27892;52.378;13.122;2022-12-24T15:38:30;10.30;80.10
42227;DHT22;27892;52.378;13.122;2022-12-24T15:43:25;10.10;81.30
42227;DHT22;27892;52.378;13.122;2022-12-24T15:45:52;10.20;81.40
42227;DHT22;27892;52.378;13.122;2022-12-24T15:48:23;10.10;81.30
42227;DHT22;27892;52.378;13.122;2022-12-24T15:50:58;10.20;82.10
42227;DHT22;27892;52.378;13.122;2022-12-24T15:53:28;10.30;81.30
42227;DHT22;27892;52.378;13.122;2022-12-24T16:06:13;10.20;80.90
42227;DHT22;27892;52.378;13.122;2022-12-24T16:08:43;10.10;81.40
42227;DHT22;27892;52.378;13.122;2022-12-24T16:11:37;10.10;82.00
42227;DHT22;27892;52.378;13.122;2022-12-24T16:14:13;10.10;82.10
42227;DHT22;27892;52.378;13.122;2022-12-24T16:16:46;10.20;82.40
42227;DHT22;27892;52.378;13.122;2022-12-24T16:19:21;10.20;82.30
42227;DHT22;27892;52.378;13.122;2022-12-24T16:22:00;10.30;82.40
42227;DHT22;27892;52.378;13.122;2022-12-24T16:24:50;10.20;82.20
42227;DHT22;27892;52.378;13.122;2022-12-24T16:27:20;10.30;82.60
42227;DHT22;27892;52.378;13.122;2022-12-24T16:29:45;10.30;82.70
42227;DHT22;27892;52.378;13.122;2022-12-24T16:32:25;10.40;83.60
42227;DHT22;27892;52.378;13.122;2022-12-24T16:34:52;10.50;84.40
42227;DHT22;27892;52.378;13.122;2022-12-24T16:37:18;10.60;84.60
42227;DHT22;27892;52.378;13.122;2022-12-24T16:39:44;10.70;84.50
42227;DHT22;27892;52.378;13.122;2022-12-24T16:42:10;10.80;83.60
42227;DHT22;27892;52.378;13.122;2022-12-24T16:44:55;10.80;83.00
42227;DHT22;27892;52.378;13.122;2022-12-24T16:47:30;10.70;83.10
42227;DHT22;27892;52.378;13.122;2022-12-24T16:49:57;10.70;83.70
42227;DHT22;27892;52.378;13.122;2022-12-24T16:52:25;10.70;83.30
42227;DHT22;27892;52.378;13.122;2022-12-24T16:54:54;10.70;83.20
42227;DHT22;27892;52.378;13.122;2022-12-24T16:57:20;10.70;83.70
42227;DHT22;27892;52.378;13.122;2022-12-24T16:59:45;10.70;83.60
42227;DHT22;27892;52.378;13.122;2022-12-24T17:02:13;10.70;84.20
42227;DHT22;27892;52.378;13.122;2022-12-24T17:04:41;10.70;84.70
42227;DHT22;27892;52.378;13.122;2022-12-24T17:07:06;10.80;84.40
42227;DHT22;27892;52.378;13.122;2022-12-24T17:09:32;10.80;84.70
42227;DHT22;27892;52.378;13.122;2022-12-24T17:11:58;10.80;84.80
42227;DHT22;27892;52.378;13.122;2022-12-24T17:14:25;10.90;84.60
42227;DHT22;27892;52.378;13.122;2022-12-24T17:16:51;11.00;84.60
42227;DHT22;27892;52.378;13.122;2022-12-24T17:19:16;11.00;84.60
42227;DHT22;27892;52.378;13.122;2022-12-24T17:21:42;11.10;84.50
42227;DHT22;27892;52.378;13.122;2022-12-24T17:24:08;11.10;83.50
42227;DHT22;27892;52.378;13.122;2022-12-24T17:26:35;11.00;84.20
42227;DHT22;27892;52.378;13.122;2022-12-24T17:29:01;11.10;84.60
42227;DHT22;27892;52.378;13.122;2022-12-24T17:31:30;11.20;84.30
42227;DHT22;27892;52.378;13.122;2022-12-24T17:33:56;11.20;84.00
42227;DHT22;27892;52.378;13.122;2022-12-24T17:36:22;11.30;84.10
42227;DHT22;27892;52.378;13.122;2022-12-24T17:38:47;11.30;83.70
42227;DHT22;27892;52.378;13.122;2022-12-24T17:41:16;11.40;84.10
42227;DHT22;27892;52.378;13.122;2022-12-24T17:43:42;11.40;84.40
42227;DHT22;27892;52.378;13.122;2022-12-24T17:46:19;11.50;84.50
42227;DHT22;27892;52.378;13.122;2022-12-24T17:48:49;11.60;84.60
42227;DHT22;27892;52.378;13.122;2022-12-24T17:51:17;11.60;84.50
42227;DHT22;27892;52.378;13.122;2022-12-24T17:53:43;11.70;85.10
42227;DHT22;27892;52.378;13.122;2022-12-24T17:56:11;11.70;84.70
42227;DHT22;27892;52.378;13.122;2022-12-24T17:58:37;11.70;84.60
42227;DHT22;27892;52.378;13.122;2022-12-24T18:01:03;11.80;84.70